Terminal Aerodrome Forecast
Issued by NWS Sterling, VA

Current Version | Previous Version | Graphics & Text | Print | Product List | Glossary On
Versions: 1 2 3 4 5 6 7 8 9 10 11 12 13 14 15 16 17 18 19 20 21 22 23 24 25
000
FTUS41 KLWX 160500 RRA
TAFDCA
TAF
KDCA 160542Z 1606/1706 VRB03KT P6SM BKN220
     FM161000 14004KT P6SM SCT030 BKN100
     FM161700 17008KT 5SM -SHRA OVC030
     FM162200 21004KT P6SM VCSH OVC020
     FM170200 26006KT P6SM SCT050=

USA.gov is the U.S. government's official web portal to all federal, state and local government web resources and services.